Terminal Aerodrome Forecast
Issued by NWS Cleveland, OH

Home | Current Version | Previous Version | Text Only | Print | Product List | Glossary Off
Versions: 1 2 3 4 5 6 7 8 9 10 11 12 13 14 15 16 17 18 19 20 21 22

473
FTUS41 KCLE 101138
TAFERI
TAF
KERI 101138Z 1012/1112 27015G22KT 1 1/2SM -SN SCT008 OVC015
      TEMPO 1012/1016 1/2SM SN BLSN OVC008
     FM101600 27012G20KT 2SM -SN OVC020
     FM101800 27012G20KT 3SM -SHSN OVC025
     FM102200 27012G20KT 6SM -SHSN OVC025=

USA.gov is the U.S. government's official web portal to all federal, state and local government web resources and services.